Time;durP1;ratioP1;P1;durP2;ratioP2;P2;SDS_P1;SDS_P2;PMS_P1;PMS_P2;Temp;Humidity;BMP_temperature;BMP_pressure;BME280_temperature;BME280_humidity;BME280_pressure;Samples;Min_cycle;Max_cycle;Signal;HPM_P1;HPM_P2
2023/12/15 00:01:42;;;;;;;29.70;18.00;;;;;;;;;;2612298;31;20938;-79
2023/12/15 00:04:08;;;;;;;42.10;20.53;;;;;;;;;;2609347;54;20436;-80
2023/12/15 00:06:34;;;;;;;32.60;17.67;;;;;;;;;;2609896;39;20774;-73
2023/12/15 00:09:00;;;;;;;33.70;19.80;;;;;;;;;;2609962;54;20436;-75
2023/12/15 00:11:26;;;;;;;33.63;18.83;;;;;;;;;;2609246;54;20450;-73
2023/12/15 00:13:53;;;;;;;34.87;20.33;;;;;;;;;;2610492;54;20427;-74
2023/12/15 00:16:19;;;;;;;31.20;19.47;;;;;;;;;;2610211;54;20550;-73
2023/12/15 00:18:45;;;;;;;35.90;19.70;;;;;;;;;;2612120;54;20464;-74
2023/12/15 00:21:11;;;;;;;36.90;20.70;;;;;;;;;;2611779;54;20996;-73
2023/12/15 00:23:38;;;;;;;29.07;16.87;;;;;;;;;;2613063;54;20443;-73
2023/12/15 00:26:04;;;;;;;30.93;18.77;;;;;;;;;;2612253;54;20397;-72
2023/12/15 00:28:30;;;;;;;39.47;20.90;;;;;;;;;;2610858;39;20776;-72
2023/12/15 00:30:56;;;;;;;41.13;22.40;;;;;;;;;;2609977;54;20423;-72
2023/12/15 00:33:22;;;;;;;38.70;20.17;;;;;;;;;;2610349;54;20408;-73
2023/12/15 00:35:48;;;;;;;33.57;21.37;;;;;;;;;;2610530;54;20411;-74
2023/12/15 00:38:15;;;;;;;36.40;19.60;;;;;;;;;;2612281;54;20388;-73
2023/12/15 00:40:41;;;;;;;39.17;19.90;;;;;;;;;;2611448;47;20493;-73
2023/12/15 00:43:06;;;;;;;37.87;19.97;;;;;;;;;;2611615;54;20415;-72
2023/12/15 00:45:33;;;;;;;35.90;21.73;;;;;;;;;;2612613;39;20928;-73
2023/12/15 00:47:59;;;;;;;34.10;19.70;;;;;;;;;;2612148;39;20841;-74
2023/12/15 00:50:28;;;;;;;36.60;20.50;;;;;;;;;;2611811;54;20423;-73
2023/12/15 00:52:54;;;;;;;32.03;18.50;;;;;;;;;;2610709;54;20421;-73
2023/12/15 00:55:20;;;;;;;35.37;20.57;;;;;;;;;;2611803;54;21039;-72
2023/12/15 00:57:46;;;;;;;28.47;18.07;;;;;;;;;;2611388;47;20431;-73
2023/12/15 01:00:13;;;;;;;34.07;18.83;;;;;;;;;;2608950;54;20461;-73
2023/12/15 01:02:38;;;;;;;34.80;19.40;;;;;;;;;;2611567;54;20428;-73
2023/12/15 01:05:05;;;;;;;33.30;20.10;;;;;;;;;;2612787;54;20511;-73
2023/12/15 01:07:31;;;;;;;36.90;19.43;;;;;;;;;;2611322;54;20438;-75
2023/12/15 01:09:57;;;;;;;39.20;18.93;;;;;;;;;;2611604;54;20460;-73
2023/12/15 01:12:23;;;;;;;36.90;19.60;;;;;;;;;;2613942;54;20427;-73
2023/12/15 01:14:49;;;;;;;29.53;18.40;;;;;;;;;;2613727;39;20780;-73
2023/12/15 01:17:15;;;;;;;27.37;17.13;;;;;;;;;;2613997;54;20451;-84
2023/12/15 01:19:41;;;;;;;31.00;17.90;;;;;;;;;;2616569;39;20921;-84
2023/12/15 01:22:07;;;;;;;29.27;17.60;;;;;;;;;;2615156;54;20430;-85
2023/12/15 01:24:33;;;;;;;31.03;18.93;;;;;;;;;;2614197;54;20489;-85
2023/12/15 01:26:59;;;;;;;30.27;17.40;;;;;;;;;;2615574;54;20408;-85
2023/12/15 01:29:25;;;;;;;27.30;16.93;;;;;;;;;;2615017;54;20404;-86
2023/12/15 01:31:51;;;;;;;35.53;17.73;;;;;;;;;;2616199;54;20520;-85
2023/12/15 01:34:17;;;;;;;30.90;19.20;;;;;;;;;;2615510;54;20500;-84
2023/12/15 01:36:43;;;;;;;30.40;17.70;;;;;;;;;;2615095;54;20968;-80
2023/12/15 01:39:09;;;;;;;29.10;17.60;;;;;;;;;;2612701;54;20425;-80
2023/12/15 01:41:35;;;;;;;48.73;20.07;;;;;;;;;;2611535;47;20446;-80
2023/12/15 01:44:01;;;;;;;31.20;19.83;;;;;;;;;;2612313;54;20989;-80
2023/12/15 01:46:27;;;;;;;34.93;17.30;;;;;;;;;;2612597;54;20498;-79
2023/12/15 01:48:54;;;;;;;24.30;15.90;;;;;;;;;;2611980;54;20405;-79
2023/12/15 01:51:20;;;;;;;33.53;16.57;;;;;;;;;;2612992;54;20442;-79
2023/12/15 01:53:46;;;;;;;35.30;17.03;;;;;;;;;;2613704;54;20416;-79
2023/12/15 01:56:12;;;;;;;30.63;17.73;;;;;;;;;;2613233;39;20661;-80
2023/12/15 01:58:38;;;;;;;29.87;18.27;;;;;;;;;;2612352;39;20962;-79
2023/12/15 02:01:04;;;;;;;31.80;18.20;;;;;;;;;;2612507;39;20947;-81
2023/12/15 02:03:31;;;;;;;32.33;17.87;;;;;;;;;;2614146;54;20467;-79
2023/12/15 02:05:57;;;;;;;28.57;17.30;;;;;;;;;;2614142;54;20424;-80
2023/12/15 02:08:23;;;;;;;32.40;18.53;;;;;;;;;;2614423;54;20471;-80
2023/12/15 02:10:49;;;;;;;30.73;17.00;;;;;;;;;;2614778;39;20981;-80
2023/12/15 02:13:15;;;;;;;30.90;18.33;;;;;;;;;;2613396;54;20516;-81
2023/12/15 02:15:41;;;;;;;34.87;17.30;;;;;;;;;;2613388;54;20515;-80
2023/12/15 02:18:07;;;;;;;29.03;17.43;;;;;;;;;;2613509;54;20460;-80
2023/12/15 02:20:33;;;;;;;30.07;17.90;;;;;;;;;;2611575;47;20429;-81
2023/12/15 02:22:59;;;;;;;30.10;16.47;;;;;;;;;;2613593;54;20389;-80
2023/12/15 02:25:25;;;;;;;30.73;17.87;;;;;;;;;;2613430;54;20405;-80
2023/12/15 02:27:51;;;;;;;26.53;16.77;;;;;;;;;;2614680;46;20420;-80
2023/12/15 02:30:17;;;;;;;26.53;16.90;;;;;;;;;;2612720;47;20422;-80
2023/12/15 02:32:43;;;;;;;27.10;17.43;;;;;;;;;;2613841;54;20429;-80
2023/12/15 02:35:11;;;;;;;28.60;18.80;;;;;;;;;;2613303;47;20881;-81
2023/12/15 02:37:37;;;;;;;27.40;17.43;;;;;;;;;;2611190;54;20427;-81
2023/12/15 02:40:03;;;;;;;30.10;15.97;;;;;;;;;;2612237;47;20420;-81
2023/12/15 02:42:29;;;;;;;31.87;13.53;;;;;;;;;;2609975;54;21043;-81
2023/12/15 02:44:55;;;;;;;31.67;18.07;;;;;;;;;;2613481;39;20815;-81
2023/12/15 02:47:21;;;;;;;27.10;15.90;;;;;;;;;;2612427;54;20441;-73
2023/12/15 02:49:47;;;;;;;30.50;16.97;;;;;;;;;;2612701;39;20867;-73
2023/12/15 02:52:13;;;;;;;31.33;16.73;;;;;;;;;;2610149;47;20436;-73
2023/12/15 02:54:39;;;;;;;26.77;18.13;;;;;;;;;;2611001;54;20527;-73
2023/12/15 02:57:05;;;;;;;29.40;17.03;;;;;;;;;;2612231;54;20976;-74
2023/12/15 02:59:31;;;;;;;24.30;16.13;;;;;;;;;;2612124;54;20527;-73
2023/12/15 03:01:57;;;;;;;31.47;18.27;;;;;;;;;;2611427;54;20616;-72
2023/12/15 03:04:23;;;;;;;31.10;18.43;;;;;;;;;;2612229;54;20405;-73
2023/12/15 03:06:49;;;;;;;25.43;17.73;;;;;;;;;;2611253;54;20468;-73
2023/12/15 03:09:15;;;;;;;26.67;17.70;;;;;;;;;;2610893;54;20515;-74
2023/12/15 03:11:41;;;;;;;28.77;19.27;;;;;;;;;;2611774;54;20496;-73
2023/12/15 03:14:07;;;;;;;27.67;16.23;;;;;;;;;;2611780;54;21112;-73
2023/12/15 03:16:33;;;;;;;29.80;17.10;;;;;;;;;;2610895;54;21076;-73
2023/12/15 03:18:59;;;;;;;36.40;18.90;;;;;;;;;;2612254;54;20519;-72
2023/12/15 03:21:25;;;;;;;31.57;17.33;;;;;;;;;;2610621;54;20431;-73
2023/12/15 03:23:51;;;;;;;29.10;17.83;;;;;;;;;;2612285;54;20451;-72
2023/12/15 03:26:17;;;;;;;33.93;17.23;;;;;;;;;;2611614;54;20509;-73
2023/12/15 03:28:43;;;;;;;31.27;17.57;;;;;;;;;;2611497;47;20491;-72
2023/12/15 03:31:09;;;;;;;21.73;15.67;;;;;;;;;;2612846;54;20397;-73
2023/12/15 03:33:36;;;;;;;26.43;16.50;;;;;;;;;;2611953;54;20421;-73
2023/12/15 03:36:03;;;;;;;31.87;18.17;;;;;;;;;;2609893;54;20433;-79
2023/12/15 03:38:29;;;;;;;32.97;19.70;;;;;;;;;;2612261;54;20516;-75
2023/12/15 03:40:55;;;;;;;30.80;18.70;;;;;;;;;;2611583;54;20424;-75
2023/12/15 03:43:21;;;;;;;28.87;16.67;;;;;;;;;;2609995;46;20572;-75
2023/12/15 03:45:47;;;;;;;26.80;17.60;;;;;;;;;;2609192;54;20435;-74
2023/12/15 03:48:13;;;;;;;31.10;18.13;;;;;;;;;;2611173;39;20915;-74
2023/12/15 03:50:39;;;;;;;23.67;16.33;;;;;;;;;;2610677;54;20415;-74
2023/12/15 03:53:06;;;;;;;31.47;15.70;;;;;;;;;;2611703;31;20884;-75
2023/12/15 03:55:32;;;;;;;29.30;17.90;;;;;;;;;;2608906;54;20429;-75
2023/12/15 03:57:58;;;;;;;28.10;17.47;;;;;;;;;;2612993;54;20419;-79
2023/12/15 04:00:24;;;;;;;31.83;17.27;;;;;;;;;;2610625;47;20432;-81
2023/12/15 04:02:50;;;;;;;26.93;15.13;;;;;;;;;;2611833;54;20868;-81
2023/12/15 04:05:16;;;;;;;28.27;19.37;;;;;;;;;;2611809;51;20474;-79
2023/12/15 04:07:42;;;;;;;23.57;17.07;;;;;;;;;;2614114;54;20401;-80
2023/12/15 04:10:09;;;;;;;24.43;15.70;;;;;;;;;;2613500;47;20427;-80
2023/12/15 04:12:35;;;;;;;27.73;17.83;;;;;;;;;;2611119;54;20428;-83
2023/12/15 04:15:01;;;;;;;34.93;17.90;;;;;;;;;;2613229;54;20502;-84
2023/12/15 04:17:27;;;;;;;28.10;17.60;;;;;;;;;;2615352;47;20463;-84
2023/12/15 04:19:53;;;;;;;31.90;16.67;;;;;;;;;;2616151;39;20850;-84
2023/12/15 04:22:22;;;;;;;29.07;17.37;;;;;;;;;;2615234;54;21078;-85
2023/12/15 04:24:49;;;;;;;33.30;18.90;;;;;;;;;;2613789;54;20437;-85
2023/12/15 04:27:15;;;;;;;28.90;14.60;;;;;;;;;;2614978;39;20738;-85
2023/12/15 04:29:41;;;;;;;29.60;17.17;;;;;;;;;;2614358;54;20447;-84
2023/12/15 04:32:08;;;;;;;42.53;20.40;;;;;;;;;;2615334;47;20419;-85
2023/12/15 04:34:34;;;;;;;33.07;20.70;;;;;;;;;;2613193;54;20404;-86
2023/12/15 04:37:00;;;;;;;27.00;17.30;;;;;;;;;;2614459;47;20830;-85
2023/12/15 04:39:27;;;;;;;26.63;17.00;;;;;;;;;;2616302;54;20439;-83
2023/12/15 04:41:53;;;;;;;26.57;16.90;;;;;;;;;;2614052;54;20420;-84
2023/12/15 04:44:19;;;;;;;27.00;17.70;;;;;;;;;;2614228;47;20480;-85
2023/12/15 04:46:46;;;;;;;35.97;18.40;;;;;;;;;;2614466;54;20408;-85
2023/12/15 04:49:12;;;;;;;26.03;17.80;;;;;;;;;;2613487;46;20453;-84
2023/12/15 04:51:38;;;;;;;35.47;18.50;;;;;;;;;;2613937;54;20947;-84
2023/12/15 04:54:04;;;;;;;33.03;19.20;;;;;;;;;;2614040;54;20441;-82
2023/12/15 04:56:30;;;;;;;33.93;17.43;;;;;;;;;;2614109;54;20436;-83
2023/12/15 04:58:56;;;;;;;37.67;16.23;;;;;;;;;;2615052;54;20431;-83
2023/12/15 05:01:25;;;;;;;32.03;18.40;;;;;;;;;;2614312;54;20427;-84
2023/12/15 05:03:51;;;;;;;26.27;16.37;;;;;;;;;;2618111;39;21547;-85
2023/12/15 05:06:20;;;;;;;30.90;17.57;;;;;;;;;;2615576;54;20949;-79
2023/12/15 05:08:46;;;;;;;33.00;19.50;;;;;;;;;;2611016;54;20407;-77
2023/12/15 05:11:12;;;;;;;30.27;18.70;;;;;;;;;;2610970;54;20973;-79
2023/12/15 05:13:38;;;;;;;29.80;18.70;;;;;;;;;;2613374;47;20424;-80
2023/12/15 05:16:06;;;;;;;31.40;18.77;;;;;;;;;;2615026;54;20400;-79
2023/12/15 05:18:32;;;;;;;38.37;21.13;;;;;;;;;;2613462;54;21072;-79
2023/12/15 05:20:58;;;;;;;38.90;18.70;;;;;;;;;;2613005;39;20808;-78
2023/12/15 05:23:24;;;;;;;31.43;18.60;;;;;;;;;;2612791;54;20515;-79
2023/12/15 05:25:50;;;;;;;30.83;18.60;;;;;;;;;;2613030;39;20778;-80
2023/12/15 05:28:16;;;;;;;35.70;21.10;;;;;;;;;;2613421;54;20448;-82
2023/12/15 05:30:42;;;;;;;38.53;19.60;;;;;;;;;;2613348;54;20428;-80
2023/12/15 05:33:08;;;;;;;39.40;20.33;;;;;;;;;;2612561;54;20382;-80
2023/12/15 05:35:35;;;;;;;41.90;20.00;;;;;;;;;;2613907;39;20866;-81
2023/12/15 05:38:02;;;;;;;39.47;20.57;;;;;;;;;;2612737;46;20431;-78
2023/12/15 05:40:28;;;;;;;28.87;15.40;;;;;;;;;;2612555;54;20396;-79
2023/12/15 05:42:54;;;;;;;35.57;17.20;;;;;;;;;;2609495;54;20471;-80
2023/12/15 05:45:20;;;;;;;37.77;21.33;;;;;;;;;;2609565;54;20425;-80
2023/12/15 05:47:47;;;;;;;41.77;21.20;;;;;;;;;;2608577;54;20417;-82
2023/12/15 05:50:13;;;;;;;31.53;18.87;;;;;;;;;;2610884;54;20414;-80
2023/12/15 05:52:39;;;;;;;35.23;20.70;;;;;;;;;;2613514;54;20418;-80
2023/12/15 05:55:06;;;;;;;33.93;21.00;;;;;;;;;;2611233;54;20440;-79
2023/12/15 05:57:32;;;;;;;27.33;17.97;;;;;;;;;;2611838;39;20701;-78
2023/12/15 05:59:59;;;;;;;39.07;21.80;;;;;;;;;;2609297;54;20435;-79
2023/12/15 06:02:25;;;;;;;39.63;23.17;;;;;;;;;;2609523;46;20459;-78
2023/12/15 06:04:51;;;;;;;39.57;21.80;;;;;;;;;;2608433;54;21014;-79
2023/12/15 06:07:19;;;;;;;41.13;21.67;;;;;;;;;;2609719;39;20924;-79
2023/12/15 06:09:45;;;;;;;29.97;16.40;;;;;;;;;;2610255;54;21054;-79
2023/12/15 06:12:11;;;;;;;43.30;22.00;;;;;;;;;;2607751;54;21166;-79
2023/12/15 06:14:37;;;;;;;50.33;24.77;;;;;;;;;;2611103;54;20973;-78
2023/12/15 06:17:06;;;;;;;37.70;16.40;;;;;;;;;;2607435;39;21007;-81
2023/12/15 06:19:32;;;;;;;44.23;20.47;;;;;;;;;;2610540;39;20914;-80
2023/12/15 06:21:58;;;;;;;45.33;24.80;;;;;;;;;;2611640;54;20504;-80
2023/12/15 06:24:24;;;;;;;49.23;23.90;;;;;;;;;;2612580;54;20431;-79
2023/12/15 06:26:51;;;;;;;44.00;23.90;;;;;;;;;;2608196;54;20432;-80
2023/12/15 06:29:17;;;;;;;42.20;22.20;;;;;;;;;;2609245;47;20467;-81
2023/12/15 06:31:46;;;;;;;41.20;22.13;;;;;;;;;;2611882;54;20400;-80
2023/12/15 06:34:12;;;;;;;42.97;22.80;;;;;;;;;;2611891;54;20429;-84
2023/12/15 06:36:39;;;;;;;46.07;22.10;;;;;;;;;;2611373;39;20761;-79
2023/12/15 06:39:05;;;;;;;56.40;25.93;;;;;;;;;;2613221;54;20428;-79
2023/12/15 06:41:31;;;;;;;55.23;26.17;;;;;;;;;;2613248;54;20466;-79
2023/12/15 06:43:58;;;;;;;50.67;24.63;;;;;;;;;;2614693;39;21051;-81
2023/12/15 06:46:24;;;;;;;51.00;25.17;;;;;;;;;;2612375;54;20862;-79
2023/12/15 06:48:50;;;;;;;41.63;22.07;;;;;;;;;;2611587;54;20583;-79
2023/12/15 06:51:17;;;;;;;40.37;23.07;;;;;;;;;;2613613;54;20492;-81
2023/12/15 06:53:43;;;;;;;49.83;25.60;;;;;;;;;;2614187;54;20478;-80
2023/12/15 06:56:10;;;;;;;41.70;22.43;;;;;;;;;;2613474;54;20417;-82
2023/12/15 06:58:36;;;;;;;47.73;25.47;;;;;;;;;;2612607;54;20433;-81
2023/12/15 07:01:02;;;;;;;50.20;28.23;;;;;;;;;;2612148;47;20432;-80
2023/12/15 07:03:28;;;;;;;45.90;25.33;;;;;;;;;;2612692;54;20425;-80
2023/12/15 07:05:54;;;;;;;59.93;27.70;;;;;;;;;;2612298;54;20440;-80
2023/12/15 07:08:20;;;;;;;53.27;25.17;;;;;;;;;;2613341;54;20428;-80
2023/12/15 07:10:47;;;;;;;57.83;26.83;;;;;;;;;;2612599;54;20413;-81
2023/12/15 07:13:13;;;;;;;40.20;23.20;;;;;;;;;;2612821;54;20434;-80
2023/12/15 07:15:39;;;;;;;48.17;23.73;;;;;;;;;;2612943;47;20433;-80
2023/12/15 07:18:05;;;;;;;55.40;25.50;;;;;;;;;;2613109;54;21102;-80
2023/12/15 07:20:33;;;;;;;59.60;29.00;;;;;;;;;;2614191;54;20421;-79
2023/12/15 07:22:59;;;;;;;56.37;23.57;;;;;;;;;;2614395;54;20424;-80
2023/12/15 07:25:25;;;;;;;59.33;26.07;;;;;;;;;;2612872;54;20440;-80
2023/12/15 07:27:53;;;;;;;51.87;25.83;;;;;;;;;;2613115;54;20451;-71
2023/12/15 07:30:19;;;;;;;56.60;28.90;;;;;;;;;;2613761;39;20834;-72
2023/12/15 07:32:45;;;;;;;51.27;25.40;;;;;;;;;;2612661;54;20420;-72
2023/12/15 07:35:11;;;;;;;50.00;27.27;;;;;;;;;;2612253;54;20468;-71
2023/12/15 07:37:37;;;;;;;53.93;25.60;;;;;;;;;;2609669;54;20514;-71
2023/12/15 07:40:06;;;;;;;57.57;25.13;;;;;;;;;;2611775;54;20432;-72
2023/12/15 07:42:32;;;;;;;73.37;29.73;;;;;;;;;;2611384;54;20456;-71
2023/12/15 07:44:58;;;;;;;64.93;28.77;;;;;;;;;;2612339;54;20432;-74
2023/12/15 07:47:25;;;;;;;61.30;30.40;;;;;;;;;;2610062;46;20466;-73
2023/12/15 07:49:51;;;;;;;68.57;29.00;;;;;;;;;;2610859;54;20478;-71
2023/12/15 07:52:17;;;;;;;60.40;29.07;;;;;;;;;;2609944;47;21166;-71
2023/12/15 07:54:43;;;;;;;53.90;27.53;;;;;;;;;;2611292;39;20581;-72
2023/12/15 07:57:09;;;;;;;58.60;26.43;;;;;;;;;;2609880;54;20411;-71
2023/12/15 07:59:35;;;;;;;66.07;30.60;;;;;;;;;;2610961;54;20429;-72
2023/12/15 08:02:03;;;;;;;70.00;31.00;;;;;;;;;;2609879;54;20391;-71
2023/12/15 08:04:29;;;;;;;50.13;23.23;;;;;;;;;;2609992;54;20982;-72
2023/12/15 08:06:55;;;;;;;60.50;27.57;;;;;;;;;;2611451;54;20469;-71
2023/12/15 08:09:21;;;;;;;70.23;30.50;;;;;;;;;;2610971;54;20441;-72
2023/12/15 08:11:46;;;;;;;63.43;28.67;;;;;;;;;;2611175;54;20412;-72
2023/12/15 08:14:12;;;;;;;51.07;23.30;;;;;;;;;;2610813;54;20432;-72
2023/12/15 08:16:38;;;;;;;61.77;28.17;;;;;;;;;;2609807;54;20387;-73
2023/12/15 08:19:07;;;;;;;65.23;28.40;;;;;;;;;;2611723;54;21150;-72
2023/12/15 08:21:33;;;;;;;72.30;28.90;;;;;;;;;;2609479;47;20547;-73
2023/12/15 08:23:59;;;;;;;60.47;28.87;;;;;;;;;;2610515;47;20485;-72
2023/12/15 08:26:27;;;;;;;56.17;27.97;;;;;;;;;;2610564;54;20394;-72
2023/12/15 08:28:53;;;;;;;73.17;34.57;;;;;;;;;;2611779;54;20417;-72
2023/12/15 08:31:20;;;;;;;67.50;26.90;;;;;;;;;;2611837;54;20424;-72
2023/12/15 08:33:46;;;;;;;62.07;26.33;;;;;;;;;;2612358;54;20458;-72
2023/12/15 08:36:12;;;;;;;55.13;23.90;;;;;;;;;;2611892;54;20953;-75
2023/12/15 08:38:38;;;;;;;63.43;26.00;;;;;;;;;;2610758;54;20930;-73
2023/12/15 08:41:04;;;;;;;66.27;29.33;;;;;;;;;;2610364;54;20530;-74
2023/12/15 08:43:30;;;;;;;63.97;26.93;;;;;;;;;;2611751;47;20754;-76
2023/12/15 08:45:56;;;;;;;63.83;27.90;;;;;;;;;;2611399;39;20828;-75
2023/12/15 08:48:22;;;;;;;74.33;30.93;;;;;;;;;;2610670;47;20443;-75
2023/12/15 08:50:49;;;;;;;74.77;31.60;;;;;;;;;;2611326;54;20424;-74
2023/12/15 08:53:17;;;;;;;57.43;30.83;;;;;;;;;;2612112;54;20531;-75
2023/12/15 08:55:43;;;;;;;55.37;26.27;;;;;;;;;;2611278;39;20826;-75
2023/12/15 08:58:09;;;;;;;75.57;32.87;;;;;;;;;;2609885;54;20527;-75
2023/12/15 09:00:36;;;;;;;70.50;28.67;;;;;;;;;;2609985;54;20389;-75
2023/12/15 09:03:03;;;;;;;62.23;27.00;;;;;;;;;;2611472;54;20467;-74
2023/12/15 09:05:29;;;;;;;68.30;30.20;;;;;;;;;;2610074;54;20533;-75
2023/12/15 09:07:55;;;;;;;63.20;28.00;;;;;;;;;;2610320;54;20415;-75
2023/12/15 09:10:22;;;;;;;72.00;29.93;;;;;;;;;;2610241;54;20401;-75
2023/12/15 09:12:48;;;;;;;70.13;29.47;;;;;;;;;;2609755;54;21092;-75
2023/12/15 09:15:14;;;;;;;72.80;31.67;;;;;;;;;;2611904;39;20839;-75
2023/12/15 09:17:44;;;;;;;55.77;23.07;;;;;;;;;;2610274;54;21287;-75
2023/12/15 09:20:11;;;;;;;71.90;27.70;;;;;;;;;;2611922;39;21273;-75
2023/12/15 09:22:37;;;;;;;75.10;30.83;;;;;;;;;;2611652;31;20841;-75
2023/12/15 09:25:04;;;;;;;74.57;27.83;;;;;;;;;;2612146;54;20424;-75
2023/12/15 09:27:30;;;;;;;69.47;29.63;;;;;;;;;;2611819;54;20423;-72
2023/12/15 09:29:56;;;;;;;71.57;27.97;;;;;;;;;;2610988;47;20433;-71
2023/12/15 09:32:22;;;;;;;61.53;28.97;;;;;;;;;;2611026;54;20418;-72
2023/12/15 09:34:48;;;;;;;74.27;27.83;;;;;;;;;;2611500;47;20997;-70
2023/12/15 09:37:14;;;;;;;72.00;31.10;;;;;;;;;;2609547;47;20443;-72
2023/12/15 09:39:40;;;;;;;74.97;32.27;;;;;;;;;;2611250;54;20426;-72
2023/12/15 09:42:06;;;;;;;77.23;32.33;;;;;;;;;;2611250;54;20429;-73
2023/12/15 09:44:32;;;;;;;89.47;33.23;;;;;;;;;;2611546;54;20429;-71
2023/12/15 09:46:59;;;;;;;62.80;30.70;;;;;;;;;;2612464;54;21799;-72
2023/12/15 09:49:25;;;;;;;69.40;30.00;;;;;;;;;;2611789;39;20779;-72
2023/12/15 09:51:52;;;;;;;71.27;30.67;;;;;;;;;;2612225;39;20849;-73
2023/12/15 09:54:19;;;;;;;74.40;32.60;;;;;;;;;;2611760;54;20491;-72
2023/12/15 09:56:48;;;;;;;56.60;26.90;;;;;;;;;;2610631;54;20432;-74
2023/12/15 09:59:14;;;;;;;73.60;31.43;;;;;;;;;;2608799;39;20817;-73
2023/12/15 10:01:40;;;;;;;63.53;28.67;;;;;;;;;;2610329;54;20401;-72
2023/12/15 10:04:07;;;;;;;83.10;32.90;;;;;;;;;;2611611;54;20406;-72
2023/12/15 10:06:36;;;;;;;70.63;32.63;;;;;;;;;;2611275;54;20451;-72
2023/12/15 10:09:03;;;;;;;72.17;31.10;;;;;;;;;;2611602;54;20452;-72
2023/12/15 10:11:35;;;;;;;63.60;26.80;;;;;;;;;;2610839;54;20405;-72
2023/12/15 10:14:04;;;;;;;71.10;30.90;;;;;;;;;;2611203;54;20471;-73
2023/12/15 10:16:31;;;;;;;58.93;27.30;;;;;;;;;;2611460;54;20417;-73
2023/12/15 10:18:57;;;;;;;71.27;30.27;;;;;;;;;;2610949;47;20451;-73
2023/12/15 10:21:23;;;;;;;65.37;29.30;;;;;;;;;;2611214;54;20433;-72
2023/12/15 10:23:49;;;;;;;68.60;26.77;;;;;;;;;;2609905;47;21038;-73
2023/12/15 10:26:15;;;;;;;71.37;30.37;;;;;;;;;;2612178;54;20500;-73
2023/12/15 10:28:42;;;;;;;65.83;30.53;;;;;;;;;;2611509;54;20403;-73
2023/12/15 10:31:08;;;;;;;79.03;32.87;;;;;;;;;;2610833;54;20434;-73
2023/12/15 10:33:35;;;;;;;62.93;27.03;;;;;;;;;;2611099;54;20415;-72
2023/12/15 10:36:02;;;;;;;68.07;28.77;;;;;;;;;;2610753;54;20978;-79
2023/12/15 10:38:31;;;;;;;84.27;29.40;;;;;;;;;;2612862;54;20471;-81
2023/12/15 10:40:57;;;;;;;78.73;31.40;;;;;;;;;;2612656;39;20842;-80
2023/12/15 10:43:24;;;;;;;62.97;29.57;;;;;;;;;;2613530;39;20893;-82
2023/12/15 10:45:54;;;;;;;63.60;28.77;;;;;;;;;;2612717;47;20479;-80
2023/12/15 10:48:20;;;;;;;70.87;30.93;;;;;;;;;;2611281;54;20522;-81
2023/12/15 10:50:48;;;;;;;66.53;29.40;;;;;;;;;;2612546;39;20831;-81
2023/12/15 10:53:15;;;;;;;72.77;28.37;;;;;;;;;;2611280;46;20438;-81
2023/12/15 10:55:46;;;;;;;55.13;25.33;;;;;;;;;;2610818;54;20429;-83
2023/12/15 10:58:12;;;;;;;56.93;27.70;;;;;;;;;;2609896;54;20430;-72
2023/12/15 11:00:38;;;;;;;59.00;25.60;;;;;;;;;;2610120;54;20447;-72
2023/12/15 11:03:06;;;;;;;55.13;24.00;;;;;;;;;;2610261;54;20433;-72
2023/12/15 11:05:35;;;;;;;65.73;28.53;;;;;;;;;;2610932;54;20534;-71
2023/12/15 11:08:01;;;;;;;65.93;28.80;;;;;;;;;;2609468;54;20433;-73
2023/12/15 11:10:27;;;;;;;60.03;27.20;;;;;;;;;;2609917;54;20420;-72
2023/12/15 11:12:53;;;;;;;61.40;25.33;;;;;;;;;;2609981;54;20404;-72
2023/12/15 11:15:23;;;;;;;56.73;27.13;;;;;;;;;;2609232;47;20434;-73
2023/12/15 11:17:50;;;;;;;55.83;30.40;;;;;;;;;;2610805;54;21049;-72
2023/12/15 11:20:25;;;;;;;56.70;26.10;;;;;;;;;;2609150;54;20447;-73
2023/12/15 11:22:57;;;;;;;62.50;28.60;;;;;;;;;;2609626;47;20437;-73
2023/12/15 11:25:36;;;;;;;54.77;27.20;;;;;;;;;;2610099;54;20439;-71
2023/12/15 11:28:10;;;;;;;64.27;30.83;;;;;;;;;;2609001;54;20993;-72
2023/12/15 11:30:44;;;;;;;58.70;28.10;;;;;;;;;;2610292;54;20977;-72
2023/12/15 11:33:22;;;;;;;56.57;27.13;;;;;;;;;;2609345;54;21071;-72
2023/12/15 11:35:54;;;;;;;54.23;24.00;;;;;;;;;;2610288;54;20444;-73
2023/12/15 11:38:23;;;;;;;72.97;29.30;;;;;;;;;;2611143;39;20779;-72
2023/12/15 11:40:50;;;;;;;53.90;27.37;;;;;;;;;;2610571;46;20439;-73
2023/12/15 11:43:17;;;;;;;62.47;25.83;;;;;;;;;;2608829;54;20446;-73
2023/12/15 11:45:43;;;;;;;57.50;26.13;;;;;;;;;;2610865;39;20797;-73
2023/12/15 11:48:10;;;;;;;61.20;26.43;;;;;;;;;;2609606;54;20404;-74
2023/12/15 11:50:41;;;;;;;47.87;25.57;;;;;;;;;;2610248;54;20450;-72
2023/12/15 11:53:09;;;;;;;68.43;29.63;;;;;;;;;;2610296;46;20561;-73
2023/12/15 11:55:35;;;;;;;54.20;25.60;;;;;;;;;;2609799;54;20511;-72
2023/12/15 11:58:02;;;;;;;51.70;27.90;;;;;;;;;;2608764;54;20417;-72
2023/12/15 12:00:29;;;;;;;43.43;24.60;;;;;;;;;;2610345;54;20411;-72
2023/12/15 12:02:56;;;;;;;44.00;23.90;;;;;;;;;;2609801;54;20823;-72
2023/12/15 12:05:22;;;;;;;52.13;24.20;;;;;;;;;;2610426;39;20810;-72
2023/12/15 12:07:49;;;;;;;45.80;24.13;;;;;;;;;;2609463;39;20786;-71
2023/12/15 12:10:15;;;;;;;56.00;26.40;;;;;;;;;;2609757;47;20441;-73
2023/12/15 12:12:41;;;;;;;46.40;23.17;;;;;;;;;;2610025;54;20423;-72
2023/12/15 12:15:09;;;;;;;48.47;24.37;;;;;;;;;;2609729;31;20863;-71
2023/12/15 12:17:36;;;;;;;47.30;24.90;;;;;;;;;;2609978;54;20458;-71
2023/12/15 12:20:21;;;;;;;62.67;25.67;;;;;;;;;;2609394;54;20415;-72
2023/12/15 12:22:47;;;;;;;51.13;24.57;;;;;;;;;;2608826;47;20415;-71
2023/12/15 12:25:16;;;;;;;50.80;24.87;;;;;;;;;;2608802;54;20446;-71
2023/12/15 12:27:44;;;;;;;54.93;27.27;;;;;;;;;;2609908;54;20430;-73
2023/12/15 12:30:11;;;;;;;63.53;26.80;;;;;;;;;;2611063;39;20814;-72
2023/12/15 12:32:38;;;;;;;45.07;26.27;;;;;;;;;;2609766;47;20528;-73
2023/12/15 12:35:04;;;;;;;56.27;28.20;;;;;;;;;;2611013;54;20520;-73
2023/12/15 12:37:34;;;;;;;50.07;25.27;;;;;;;;;;2611798;54;20596;-71
2023/12/15 12:40:03;;;;;;;45.13;25.20;;;;;;;;;;2611420;54;20977;-72
2023/12/15 12:42:30;;;;;;;95.30;49.50;;;;;;;;;;2611212;39;20994;-72
2023/12/15 12:44:56;;;;;;;54.63;32.57;;;;;;;;;;2611392;47;20453;-72
2023/12/15 12:47:22;;;;;;;47.13;24.10;;;;;;;;;;2610194;54;20425;-73
2023/12/15 12:49:48;;;;;;;56.93;27.60;;;;;;;;;;2610528;54;20417;-71
2023/12/15 12:52:14;;;;;;;52.23;23.17;;;;;;;;;;2610220;47;20463;-72
2023/12/15 12:54:40;;;;;;;45.37;24.87;;;;;;;;;;2611400;39;20791;-72
2023/12/15 12:57:09;;;;;;;47.27;26.20;;;;;;;;;;2611814;54;20451;-84
2023/12/15 12:59:41;;;;;;;50.43;25.50;;;;;;;;;;2616987;47;20474;-85
2023/12/15 13:02:07;;;;;;;66.57;36.63;;;;;;;;;;2616465;54;20959;-85
2023/12/15 13:04:34;;;;;;;49.13;26.00;;;;;;;;;;2616611;54;20388;-82
2023/12/15 13:07:00;;;;;;;41.57;23.77;;;;;;;;;;2614563;54;20465;-83
2023/12/15 13:09:26;;;;;;;50.93;26.57;;;;;;;;;;2615174;54;20423;-83
2023/12/15 13:11:53;;;;;;;53.70;27.67;;;;;;;;;;2613259;54;20466;-82
2023/12/15 13:14:19;;;;;;;45.57;24.80;;;;;;;;;;2615470;54;20447;-82
2023/12/15 13:16:45;;;;;;;40.77;22.57;;;;;;;;;;2614161;54;20399;-79
2023/12/15 13:19:12;;;;;;;40.97;22.50;;;;;;;;;;2611372;47;20417;-78
2023/12/15 13:21:38;;;;;;;48.10;23.57;;;;;;;;;;2611798;39;20777;-78
2023/12/15 13:24:04;;;;;;;43.00;25.00;;;;;;;;;;2610792;54;20454;-78
2023/12/15 13:26:30;;;;;;;51.27;26.43;;;;;;;;;;2611766;54;20422;-78
2023/12/15 13:28:56;;;;;;;51.13;27.20;;;;;;;;;;2612423;54;20966;-79
2023/12/15 13:31:22;;;;;;;51.47;25.10;;;;;;;;;;2611693;47;20524;-78
2023/12/15 13:33:50;;;;;;;48.53;25.10;;;;;;;;;;2611261;54;20980;-78
2023/12/15 13:36:16;;;;;;;42.73;24.53;;;;;;;;;;2611560;54;20407;-79
2023/12/15 13:38:43;;;;;;;49.33;22.10;;;;;;;;;;2611584;47;20417;-79
2023/12/15 13:41:09;;;;;;;51.50;30.37;;;;;;;;;;2613368;54;20436;-80
2023/12/15 13:43:37;;;;;;;48.67;25.63;;;;;;;;;;2612234;54;20421;-79
2023/12/15 13:46:03;;;;;;;54.33;26.70;;;;;;;;;;2612204;47;20404;-77
2023/12/15 13:48:29;;;;;;;50.63;26.77;;;;;;;;;;2612228;39;20763;-78
2023/12/15 13:50:55;;;;;;;50.03;27.17;;;;;;;;;;2612498;54;20478;-78
2023/12/15 13:53:21;;;;;;;48.97;27.20;;;;;;;;;;2610745;54;20415;-78
2023/12/15 13:55:47;;;;;;;42.20;22.57;;;;;;;;;;2610007;54;20522;-80
2023/12/15 13:58:14;;;;;;;51.93;22.07;;;;;;;;;;2610137;54;20548;-80
2023/12/15 14:00:39;;;;;;;55.20;23.80;;;;;;;;;;2611914;47;20460;-78
2023/12/15 14:03:06;;;;;;;52.37;28.23;;;;;;;;;;2611506;47;20418;-79
2023/12/15 14:05:32;;;;;;;58.80;28.80;;;;;;;;;;2612553;54;20424;-80
2023/12/15 14:07:58;;;;;;;56.00;26.63;;;;;;;;;;2612017;54;20427;-74
2023/12/15 14:10:24;;;;;;;47.30;23.70;;;;;;;;;;2611381;54;20576;-74
2023/12/15 14:12:50;;;;;;;49.93;27.33;;;;;;;;;;2609688;39;20873;-75